Weather at Omak Airport

Public forecast

Using degrees Fahrenheit for public forecast. Weather courtesy of forecast.io.

Current aviation weather report (METAR) for Omak Airport

Retrieved 2021/10/21 13:53 UTC (1 hour ago):

KOMK 211353Z AUTO 00000KT 10SM OVC065 05/03 A3010 RMK AO2 SLP199 T00500033

Closest aviation forecast (TAF) to Omak Airport

Closest forecast is Penticton Airport, 60.1 nm (111.2 km) N. Retrieved 2021/10/21 13:39 UTC (2 hours ago):

TAF CYYF 211238Z 2113/2201 VRB03KT P6SM FEW030 SCT060 TEMPO 2113/2118 BKN030 FM211800 18010KT P6SM SCT060 BKN120 BECMG 2118/2120 18015G25KT RMK NXT FCST BY 211900Z